Terminal Aerodrome Forecast
Issued by NWS

Home | Current Version | Previous Version | Text Only | Print | Product List | Glossary Off
Versions: 1 2 3 4 5 6 7 8 9 10 11 12 13 14 15 16 17 18 19 20

420
FTUS43 KMPX 272339
TAFRWF
TAF
KRWF 272339Z 2800/2824 08013G20KT P6SM OVC035
      TEMPO 2800/2803 BKN025
     FM280800 06012G18KT 4SM -RA BR OVC025
     FM281400 06010KT 6SM -SHRA BR OVC020
     FM282000 05009KT P6SM OVC040=

USA.gov is the U.S. government's official web portal to all federal, state and local government web resources and services.